Puryear, Tennessee
Current Conditions -  °F | °C
As of 2:35 AM on Saturday 25 Oct 2014 (Local Time) from KPHT Reporting Station
Overcast Overcast  
Wind Chill: 48°   Ceiling: 4500
Heat Index: 48°   Visibility: 6mi
Dew Point: 48°   Wind: 0mph
Humidity: 100%   Direction: NA
Pressure: 30.07"   Gusts: NA
Location:  36.44°N, 88.33°W
Report Text: KPHT 250735Z AUTO 00000KT 6SM OVC045 09/09 A3007 RMK
Loading
Personal Weather Stations






























Interactive Weather Map
Tropical Storm Tracking
New forecast layout! Learn more

10-Day Weather Forecast

Advertisements
Track Severe Weather on mobile